Concepcion, Bolivia
Current Conditions -  °F | °C
As of 8:00 AM on Tuesday 21 Oct 2014 (Local Time) from SLSI Reporting Station
Clear Clear  
Wind Chill: 72°   Ceiling: Unl
Heat Index: 72°   Visibility: 6mi
Dew Point: 66°   Wind: 12mph
Humidity: 83%   Direction: 190°S
Pressure: 29.97"   Gusts: NA
Location:  16.25°S, 62.1°W
Report Text: SLSI 211200Z 19010KT 9999 NSC 22/19 Q1015
Loading
Personal Weather Stations






























Interactive Weather Map
Tropical Storm Tracking
New forecast layout! Learn more

10-Day Weather Forecast

Advertisements
Track Severe Weather on mobile